Time;durP1;ratioP1;P1;durP2;ratioP2;P2;SDS_P1;SDS_P2;PMS_P1;PMS_P2;Temp;Humidity;BMP_temperature;BMP_pressure;BME280_temperature;BME280_humidity;BME280_pressure;Samples;Min_cycle;Max_cycle;Signal;HPM_P1;HPM_P2
2021/01/06 00:00:59;;;;;;;28.43;13.03;;;;;;;5.57;62.42;94580.63;5033919;28;20172;-72
2021/01/06 00:03:25;;;;;;;25.03;11.73;;;;;;;5.72;62.07;94587.22;5034821;28;20276;-72
2021/01/06 00:05:52;;;;;;;33.97;12.87;;;;;;;5.64;62.58;94586.19;5033713;28;20223;-73
2021/01/06 00:08:17;;;;;;;18.92;10.68;;;;;;;5.24;63.76;94586.53;5034682;28;20792;-73
2021/01/06 00:10:45;;;;;;;26.23;11.70;;;;;;;5.46;64.29;94566.97;5035006;28;20211;-72
2021/01/06 00:13:11;;;;;;;24.73;12.35;;;;;;;5.38;63.92;94556.41;5034577;28;20176;-73
2021/01/06 00:15:37;;;;;;;27.00;12.50;;;;;;;5.06;64.39;94560.47;5035062;28;20216;-73
2021/01/06 00:18:03;;;;;;;25.60;11.10;;;;;;;4.98;64.54;94570.72;5034644;28;20949;-73
2021/01/06 00:20:29;;;;;;;23.55;10.00;;;;;;;5.31;64.10;94572.78;5033665;28;20261;-74
2021/01/06 00:22:55;;;;;;;22.63;11.30;;;;;;;5.68;62.39;94571.19;5034710;28;20631;-71
2021/01/06 00:25:23;;;;;;;21.40;10.17;;;;;;;5.53;63.24;94591.06;5039759;28;20477;-72
2021/01/06 00:27:48;;;;;;;21.00;10.73;;;;;;;5.55;62.41;94610.03;5073019;28;20211;-70
2021/01/06 00:30:34;;;;;;;25.77;12.47;;;;;;;5.69;61.73;94580.69;5056464;28;20194;-72
2021/01/06 00:33:00;;;;;;;20.50;10.73;;;;;;;5.89;62.12;94581.81;5074481;28;20266;-74
2021/01/06 00:35:26;;;;;;;23.60;11.27;;;;;;;5.60;63.36;94606.44;5055913;28;20895;-75
2021/01/06 00:37:51;;;;;;;29.73;11.03;;;;;;;5.60;62.91;94616.28;5074360;28;20174;-72
2021/01/06 00:40:17;;;;;;;16.53;9.90;;;;;;;5.67;62.86;94598.00;5074090;28;20175;-73
2021/01/06 00:42:43;;;;;;;17.63;8.63;;;;;;;5.72;63.00;94619.00;5074075;28;20167;-75
2021/01/06 00:45:10;;;;;;;17.90;9.30;;;;;;;6.01;62.19;94613.75;5055911;28;20429;-74
2021/01/06 00:47:36;;;;;;;18.88;8.40;;;;;;;6.09;60.97;94610.25;5074465;28;20549;-74
2021/01/06 00:50:03;;;;;;;16.70;8.73;;;;;;;6.21;61.08;94608.75;5073822;28;20187;-73
2021/01/06 00:52:28;;;;;;;13.83;7.67;;;;;;;5.79;62.47;94619.28;5073592;28;20958;-75
2021/01/06 00:54:54;;;;;;;18.97;8.43;;;;;;;5.75;62.64;94626.31;5073173;28;20465;-74
2021/01/06 00:57:19;;;;;;;15.40;8.33;;;;;;;5.77;61.98;94632.84;5073495;28;20202;-72
2021/01/06 00:59:46;;;;;;;19.37;9.30;;;;;;;5.71;62.45;94634.13;5073896;28;20202;-74
2021/01/06 01:02:11;;;;;;;17.13;8.27;;;;;;;6.16;60.56;94627.50;5073514;28;20179;-72
2021/01/06 01:04:37;;;;;;;15.53;9.13;;;;;;;5.69;62.32;94627.59;5073728;28;20425;-72
2021/01/06 01:07:02;;;;;;;15.97;8.37;;;;;;;5.43;63.76;94627.72;5073622;28;20183;-72
2021/01/06 01:09:28;;;;;;;17.50;9.27;;;;;;;5.89;61.57;94632.16;5073789;28;20171;-72
2021/01/06 01:11:53;;;;;;;17.80;7.60;;;;;;;5.99;61.54;94612.50;5073291;28;20170;-72
2021/01/06 01:14:18;;;;;;;14.27;7.40;;;;;;;5.71;62.65;94633.34;5073488;28;20256;-71
2021/01/06 01:16:45;;;;;;;25.33;8.77;;;;;;;5.51;62.61;94634.88;5073360;28;20190;-71
2021/01/06 01:19:10;;;;;;;16.03;8.53;;;;;;;5.82;62.17;94613.34;5073529;28;20182;-74
2021/01/06 01:21:36;;;;;;;22.30;8.90;;;;;;;5.88;61.75;94621.88;5073207;28;20417;-75
2021/01/06 01:24:01;;;;;;;19.63;6.90;;;;;;;6.02;61.49;94627.75;5073167;28;20182;-71
2021/01/06 01:26:27;;;;;;;16.93;8.20;;;;;;;5.79;62.00;94619.28;5073255;28;20273;-71
2021/01/06 01:28:53;;;;;;;15.90;7.63;;;;;;;5.86;62.65;94621.44;5072801;28;20281;-71
2021/01/06 01:31:18;;;;;;;15.40;8.03;;;;;;;5.48;63.64;94616.94;5073246;28;20179;-71
2021/01/06 01:33:44;;;;;;;14.67;7.63;;;;;;;5.68;62.25;94608.28;5054110;28;20213;-71
2021/01/06 01:36:10;;;;;;;15.67;7.70;;;;;;;5.71;62.00;94620.88;5073043;28;20186;-72
2021/01/06 01:38:35;;;;;;;18.80;7.77;;;;;;;5.30;63.68;94617.03;5072930;28;20178;-71
2021/01/06 01:41:08;;;;;;;13.67;7.93;;;;;;;5.46;64.57;94611.22;5072842;28;20591;-71
2021/01/06 01:43:34;;;;;;;13.60;7.07;;;;;;;5.41;64.55;94608.72;5054882;28;20214;-71
2021/01/06 01:46:00;;;;;;;16.35;7.53;;;;;;;5.13;64.84;94613.66;5072874;28;20429;-71
2021/01/06 01:48:37;;;;;;;13.53;7.67;;;;;;;5.52;63.56;94608.06;5072648;28;20677;-73
2021/01/06 01:51:13;;;;;;;14.85;7.45;;;;;;;5.59;64.24;94620.78;5072807;28;20266;-72
2021/01/06 01:53:41;;;;;;;17.55;8.57;;;;;;;5.32;64.57;94617.47;5054809;28;20194;-72
2021/01/06 01:56:07;;;;;;;19.98;8.05;;;;;;;5.14;64.54;94607.28;5055181;28;20206;-75
2021/01/06 01:58:32;;;;;;;17.80;8.52;;;;;;;5.13;64.38;94613.66;5038245;28;20182;-73
2021/01/06 02:00:58;;;;;;;13.00;7.17;;;;;;;5.27;63.94;94593.03;5072746;28;20171;-71
2021/01/06 02:03:43;;;;;;;15.63;7.97;;;;;;;5.41;64.36;94588.31;5053607;28;20601;-74
2021/01/06 02:06:28;;;;;;;17.33;8.33;;;;;;;5.37;64.14;94583.97;5038515;28;20205;-71
2021/01/06 02:09:04;;;;;;;13.02;7.65;;;;;;;5.10;65.23;94601.06;5054700;28;20499;-72
2021/01/06 02:11:40;;;;;;;16.83;8.93;;;;;;;5.13;65.22;94587.97;5039165;28;20305;-74
2021/01/06 02:14:13;;;;;;;16.97;8.43;;;;;;;5.31;64.81;94597.41;5072029;28;20197;-74
2021/01/06 02:16:51;;;;;;;18.90;8.60;;;;;;;5.22;65.33;94601.97;5072427;28;20540;-73
2021/01/06 02:19:19;;;;;;;23.83;9.77;;;;;;;5.45;64.61;94612.31;5038145;28;20440;-72
2021/01/06 02:21:45;;;;;;;26.80;10.37;;;;;;;5.77;63.33;94605.56;5072184;28;20945;-74
2021/01/06 02:24:10;;;;;;;18.40;10.07;;;;;;;5.46;64.67;94605.91;5054196;28;20417;-72
2021/01/06 02:26:36;;;;;;;21.20;9.77;;;;;;;5.26;65.04;94602.84;5072176;28;20567;-75
2021/01/06 02:29:01;;;;;;;27.63;11.10;;;;;;;5.46;63.93;94593.44;5054115;28;20227;-75
2021/01/06 02:31:27;;;;;;;23.37;12.30;;;;;;;5.34;64.96;94587.28;5071044;28;20178;-75
2021/01/06 02:33:53;;;;;;;21.27;11.03;;;;;;;5.41;65.51;94580.38;5053927;28;20175;-74
2021/01/06 02:36:19;;;;;;;22.73;10.73;;;;;;;5.68;63.88;94586.31;5070926;28;20190;-74
2021/01/06 02:38:44;;;;;;;25.23;12.90;;;;;;;5.80;63.30;94595.13;5053926;28;20171;-74
2021/01/06 02:41:10;;;;;;;26.70;11.50;;;;;;;5.62;64.39;94590.25;5054128;28;20444;-75
2021/01/06 02:43:36;;;;;;;28.40;12.73;;;;;;;5.13;65.40;94592.50;5070725;28;20179;-75
2021/01/06 02:46:01;;;;;;;27.50;13.10;;;;;;;5.15;65.44;94590.28;5054499;28;20425;-74
2021/01/06 02:48:27;;;;;;;26.27;12.20;;;;;;;5.26;65.31;94594.91;5071885;28;20203;-75
2021/01/06 02:50:55;;;;;;;22.67;12.40;;;;;;;5.03;65.63;94586.44;5053269;28;20226;-74
2021/01/06 02:53:24;;;;;;;25.23;12.83;;;;;;;5.40;64.67;94584.13;5054093;28;20689;-74
2021/01/06 02:55:50;;;;;;;28.20;12.73;;;;;;;5.61;64.39;94575.44;5053488;28;20476;-73
2021/01/06 02:58:17;;;;;;;30.67;12.83;;;;;;;5.50;64.39;94572.38;5070509;28;20178;-74
2021/01/06 03:00:43;;;;;;;28.33;13.20;;;;;;;5.67;64.41;94560.91;5053599;28;20642;-74
2021/01/06 03:03:09;;;;;;;25.17;12.67;;;;;;;5.51;65.25;94556.19;5070268;28;20414;-75
2021/01/06 03:05:45;;;;;;;24.10;12.57;;;;;;;5.42;65.50;94563.41;5070244;28;20171;-73
2021/01/06 03:08:13;;;;;;;27.88;13.05;;;;;;;5.05;66.68;94580.84;5053622;28;20456;-73
2021/01/06 03:10:38;;;;;;;22.57;12.70;;;;;;;5.43;65.49;94572.88;5071236;28;20202;-73
2021/01/06 03:13:04;;;;;;;25.50;11.73;;;;;;;5.64;64.25;94574.81;5071432;28;20931;-74
2021/01/06 03:15:29;;;;;;;25.63;13.03;;;;;;;5.38;65.04;94559.81;5053153;28;20237;-74
2021/01/06 03:17:57;;;;;;;33.67;13.73;;;;;;;5.57;63.93;94540.88;5053619;28;20167;-73
2021/01/06 03:20:43;;;;;;;26.33;13.63;;;;;;;5.41;64.98;94553.13;5071390;28;20182;-74
2021/01/06 03:23:18;;;;;;;27.60;14.17;;;;;;;5.17;65.00;94556.38;5053174;28;20417;-73
2021/01/06 03:25:44;;;;;;;27.83;14.57;;;;;;;5.23;65.32;94555.88;5053162;28;20419;-72
2021/01/06 03:28:10;;;;;;;30.70;13.63;;;;;;;5.20;65.85;94555.72;5071297;28;20210;-73
2021/01/06 03:30:36;;;;;;;27.80;12.97;;;;;;;5.46;64.58;94550.31;5052962;28;20317;-73
2021/01/06 03:33:23;;;;;;;28.10;12.80;;;;;;;5.66;64.71;94569.97;5053539;28;20953;-75
2021/01/06 03:35:57;;;;;;;27.20;13.63;;;;;;;5.40;64.97;94570.13;5053349;28;20206;-73
2021/01/06 03:38:24;;;;;;;30.03;14.03;;;;;;;5.49;64.36;94539.06;5053321;28;20190;-73
2021/01/06 03:40:49;;;;;;;31.20;14.80;;;;;;;5.52;64.79;94559.63;5069923;28;20471;-74
2021/01/06 03:43:16;;;;;;;24.93;13.13;;;;;;;5.18;65.49;94584.38;5053469;28;21107;-73
2021/01/06 03:45:42;;;;;;;27.52;12.73;;;;;;;5.11;65.47;94569.00;5053072;28;20167;-74
2021/01/06 03:48:22;;;;;;;23.10;12.45;;;;;;;5.40;65.05;94559.53;5071136;28;20661;-74
2021/01/06 03:50:51;;;;;;;31.30;13.40;;;;;;;5.13;65.37;94558.88;5071494;28;20627;-72
2021/01/06 03:53:37;;;;;;;26.50;12.70;;;;;;;5.25;65.46;94553.66;5053840;28;20421;-74
2021/01/06 03:56:12;;;;;;;29.17;12.85;;;;;;;5.39;65.34;94571.19;5069905;28;20522;-75
2021/01/06 03:59:02;;;;;;;26.27;13.30;;;;;;;5.02;65.35;94565.59;5053330;28;20258;-75
2021/01/06 04:01:46;;;;;;;29.00;13.43;;;;;;;5.23;65.47;94576.25;5053263;28;20494;-74
2021/01/06 04:04:22;;;;;;;28.48;13.00;;;;;;;5.06;66.26;94586.91;5070715;28;20577;-75
2021/01/06 04:06:50;;;;;;;26.53;13.60;;;;;;;4.98;66.46;94576.03;5069946;28;20179;-74
2021/01/06 04:09:38;;;;;;;30.80;13.90;;;;;;;5.07;65.97;94562.00;5070873;28;20504;-75
2021/01/06 04:12:08;;;;;;;29.40;14.03;;;;;;;4.82;66.49;94580.28;5052437;28;20425;-74
2021/01/06 04:14:34;;;;;;;30.77;13.35;;;;;;;4.76;67.12;94573.59;5070861;28;20469;-76
2021/01/06 04:17:03;;;;;;;27.80;12.87;;;;;;;5.00;66.83;94588.97;5071269;28;20182;-74
2021/01/06 04:19:28;;;;;;;29.00;13.40;;;;;;;4.60;68.49;94591.88;5069894;28;20178;-74
2021/01/06 04:21:54;;;;;;;25.90;12.70;;;;;;;4.73;67.13;94593.53;5053151;28;20598;-75
2021/01/06 04:24:19;;;;;;;25.13;12.30;;;;;;;4.98;66.81;94612.28;5070901;28;20167;-75
2021/01/06 04:26:45;;;;;;;26.80;13.33;;;;;;;4.95;66.39;94597.06;5071723;28;20593;-74
2021/01/06 04:29:10;;;;;;;27.50;12.60;;;;;;;5.31;65.05;94617.78;5074080;28;20214;-76
2021/01/06 04:31:36;;;;;;;27.23;13.70;;;;;;;5.12;66.07;94612.13;5056803;28;20657;-73
2021/01/06 04:34:01;;;;;;;27.50;12.97;;;;;;;5.02;66.43;94605.28;5074173;28;20171;-73
2021/01/06 04:36:31;;;;;;;33.47;14.33;;;;;;;4.89;66.32;94599.09;5074337;28;20159;-74
2021/01/06 04:38:58;;;;;;;25.48;13.02;;;;;;;5.39;65.04;94597.66;5056540;28;20253;-74
2021/01/06 04:41:31;;;;;;;26.80;12.80;;;;;;;5.30;65.25;94618.91;5074206;28;20178;-74
2021/01/06 04:44:18;;;;;;;29.63;12.20;;;;;;;5.16;65.81;94615.66;5056222;28;20662;-74
2021/01/06 04:46:44;;;;;;;23.73;11.90;;;;;;;5.18;65.41;94606.34;5074237;28;20324;-74
2021/01/06 04:49:37;;;;;;;29.57;12.23;;;;;;;5.09;65.94;94613.50;5074003;28;20179;-74
2021/01/06 04:52:08;;;;;;;25.58;12.73;;;;;;;5.06;65.69;94593.00;5056272;28;20187;-74
2021/01/06 04:55:11;;;;;;;31.20;13.15;;;;;;;5.25;66.11;94590.72;5073724;28;20233;-74
2021/01/06 04:57:43;;;;;;;27.23;12.60;;;;;;;5.49;64.25;94589.38;5073946;28;20229;-76
2021/01/06 05:00:29;;;;;;;26.63;12.15;;;;;;;5.21;65.81;94587.16;5056249;28;20171;-74
2021/01/06 05:03:35;;;;;;;32.47;13.07;;;;;;;5.32;65.27;94590.22;5055770;28;20171;-74
2021/01/06 05:06:11;;;;;;;21.40;11.38;;;;;;;4.87;66.11;94601.28;5072371;28;20181;-75
2021/01/06 05:08:45;;;;;;;22.65;10.95;;;;;;;5.22;65.19;94594.03;5072824;28;20166;-74
2021/01/06 05:11:33;;;;;;;22.63;12.40;;;;;;;4.92;66.97;94592.41;5072443;28;20167;-75
2021/01/06 05:14:08;;;;;;;25.38;13.13;;;;;;;4.87;66.76;94592.56;5055835;28;20178;-72
2021/01/06 05:16:36;;;;;;;24.02;12.43;;;;;;;4.87;66.35;94572.16;5055864;28;20704;-74
2021/01/06 05:19:03;;;;;;;26.80;13.10;;;;;;;5.44;65.10;94571.78;5073712;28;20178;-74
2021/01/06 05:21:29;;;;;;;24.87;12.00;;;;;;;5.21;66.32;94589.78;5072137;28;20217;-75
2021/01/06 05:24:06;;;;;;;23.60;12.20;;;;;;;5.01;66.98;94590.50;5072274;28;20433;-75
2021/01/06 05:26:31;;;;;;;24.38;12.85;;;;;;;5.09;66.04;94576.47;5073163;28;20684;-75
2021/01/06 05:28:57;;;;;;;28.57;13.13;;;;;;;5.01;65.71;94578.06;5073363;28;20257;-74
2021/01/06 05:31:22;;;;;;;27.73;12.93;;;;;;;5.27;65.35;94593.81;5055353;28;20526;-74
2021/01/06 05:33:50;;;;;;;24.77;12.07;;;;;;;4.77;66.11;94573.31;5072249;28;20226;-74
2021/01/06 05:36:22;;;;;;;27.05;13.13;;;;;;;4.94;67.27;94553.97;5055222;28;20199;-74
2021/01/06 05:38:48;;;;;;;26.15;13.07;;;;;;;4.62;67.50;94604.75;5055298;28;20175;-75
2021/01/06 05:41:13;;;;;;;29.07;14.63;;;;;;;4.59;67.91;94623.88;5071389;28;20198;-73
2021/01/06 05:43:49;;;;;;;26.17;13.20;;;;;;;4.99;65.88;94601.41;5071897;28;20171;-74
2021/01/06 05:46:30;;;;;;;21.67;11.10;;;;;;;5.13;65.87;94614.44;5071838;28;20210;-73
2021/01/06 05:49:01;;;;;;;23.47;12.50;;;;;;;4.94;66.23;94612.16;5071796;28;20177;-73
2021/01/06 05:51:33;;;;;;;25.23;12.27;;;;;;;5.31;65.65;94609.84;5055010;28;20448;-74
2021/01/06 05:54:00;;;;;;;29.13;12.60;;;;;;;5.26;66.13;94610.81;5072754;28;20175;-73
2021/01/06 05:56:29;;;;;;;27.38;12.23;;;;;;;5.29;66.07;94626.06;5072668;28;20237;-74
2021/01/06 05:58:57;;;;;;;26.40;12.23;;;;;;;5.09;66.83;94599.50;5072762;28;20613;-75
2021/01/06 06:01:36;;;;;;;30.35;11.85;;;;;;;5.25;66.37;94606.59;5054734;28;20183;-71
2021/01/06 06:04:23;;;;;;;30.63;12.33;;;;;;;5.38;66.18;94618.06;5054954;28;20174;-76
2021/01/06 06:06:51;;;;;;;27.95;12.68;;;;;;;5.36;65.97;94609.69;5073005;28;20405;-75
2021/01/06 06:09:38;;;;;;;27.43;10.90;;;;;;;5.47;65.47;94640.00;5072659;28;20564;-75
2021/01/06 06:12:25;;;;;;;28.88;12.02;;;;;;;5.30;66.12;94624.97;5072564;28;20567;-74
2021/01/06 06:15:24;;;;;;;26.83;12.20;;;;;;;5.40;66.08;94623.84;5072423;28;20203;-74
2021/01/06 06:18:17;;;;;;;24.17;11.90;;;;;;;5.29;66.08;94630.59;5071182;28;20978;-76
2021/01/06 06:21:11;;;;;;;27.80;11.85;;;;;;;5.44;64.84;94610.72;5072483;28;20218;-75
2021/01/06 06:23:52;;;;;;;24.23;11.13;;;;;;;5.47;64.84;94637.34;5054632;28;20166;-76
2021/01/06 06:26:20;;;;;;;22.53;11.53;;;;;;;5.27;64.97;94614.22;5072015;28;20449;-76
2021/01/06 06:29:01;;;;;;;27.77;11.75;;;;;;;5.39;64.53;94640.84;5072253;28;20840;-75
2021/01/06 06:31:30;;;;;;;22.17;12.25;;;;;;;5.07;65.53;94625.53;5054116;28;20229;-75
2021/01/06 06:34:00;;;;;;;23.20;11.47;;;;;;;5.09;65.77;94616.16;5071097;28;20182;-75
2021/01/06 06:36:28;;;;;;;24.33;11.23;;;;;;;5.11;65.98;94631.75;5054116;28;20500;-75
2021/01/06 06:38:54;;;;;;;25.48;11.85;;;;;;;4.97;66.05;94632.69;5053701;28;20281;-74
2021/01/06 06:41:22;;;;;;;27.67;11.20;;;;;;;5.31;65.21;94617.78;5054031;28;20182;-74
2021/01/06 06:44:09;;;;;;;23.63;10.47;;;;;;;5.13;65.61;94648.06;5071752;28;20638;-73
2021/01/06 06:46:44;;;;;;;19.60;10.23;;;;;;;5.23;64.72;94637.94;5054063;28;20871;-75
2021/01/06 06:49:16;;;;;;;22.58;10.98;;;;;;;5.03;66.40;94646.53;5071351;28;20986;-75
2021/01/06 06:52:19;;;;;;;20.23;11.13;;;;;;;5.08;65.86;94664.88;5053491;28;20183;-75
2021/01/06 06:55:11;;;;;;;22.03;10.63;;;;;;;5.00;65.35;94644.53;5068732;28;20205;-76
2021/01/06 06:58:04;;;;;;;24.63;11.05;;;;;;;5.05;65.45;94644.38;5027402;28;20507;-73
2021/01/06 07:00:29;;;;;;;21.60;11.95;;;;;;;4.83;66.39;94685.03;5029514;28;20180;-73
2021/01/06 07:03:02;;;;;;;31.13;13.27;;;;;;;5.15;66.33;94622.84;5046121;28;20183;-73
2021/01/06 07:05:36;;;;;;;27.25;12.60;;;;;;;5.12;65.76;94659.75;5029700;28;20259;-73
2021/01/06 07:08:08;;;;;;;25.88;13.55;;;;;;;4.88;66.38;94658.41;5029413;28;20204;-74
2021/01/06 07:10:45;;;;;;;28.03;13.57;;;;;;;4.88;66.70;94660.25;5016370;28;20650;-74
2021/01/06 07:13:21;;;;;;;33.57;13.00;;;;;;;5.23;66.10;94645.88;5032589;28;20464;-74
2021/01/06 07:16:05;;;;;;;29.50;13.97;;;;;;;5.31;65.83;94660.16;5032295;28;20562;-74
2021/01/06 07:18:39;;;;;;;23.20;11.40;;;;;;;5.27;65.93;94669.81;5032426;28;20415;-73
2021/01/06 07:21:18;;;;;;;24.53;13.07;;;;;;;5.69;65.01;94665.47;5049357;28;20960;-74
2021/01/06 07:24:07;;;;;;;30.33;13.53;;;;;;;5.82;63.86;94672.41;5049118;28;20418;-73
2021/01/06 07:26:37;;;;;;;26.23;13.43;;;;;;;5.78;64.45;94673.34;5009361;28;20806;-75
2021/01/06 07:29:07;;;;;;;20.83;11.93;;;;;;;5.50;65.80;94668.50;4993098;28;20472;-73
2021/01/06 07:31:51;;;;;;;22.60;12.57;;;;;;;5.65;64.79;94675.13;5009253;28;20527;-73
2021/01/06 07:34:20;;;;;;;28.60;13.10;;;;;;;5.88;64.45;94664.28;5009356;28;22354;-73
2021/01/06 07:36:48;;;;;;;28.40;13.03;;;;;;;5.79;63.91;94688.97;4993106;28;20416;-74
2021/01/06 07:39:28;;;;;;;27.03;13.93;;;;;;;5.63;64.17;94681.88;5009668;28;20527;-74
2021/01/06 07:41:54;;;;;;;30.27;13.30;;;;;;;5.76;64.47;94681.63;5009355;28;20825;-75
2021/01/06 07:44:25;;;;;;;29.17;14.87;;;;;;;5.72;64.54;94688.66;4993227;28;20427;-75
2021/01/06 07:46:53;;;;;;;30.37;14.07;;;;;;;5.66;65.31;94691.81;4992822;28;20583;-74
2021/01/06 07:49:30;;;;;;;26.40;14.67;;;;;;;5.52;65.82;94710.56;5009524;28;20924;-74
2021/01/06 07:52:16;;;;;;;30.83;14.83;;;;;;;5.65;65.24;94682.31;4993709;28;20973;-75
2021/01/06 07:55:00;;;;;;;31.80;15.00;;;;;;;5.66;65.04;94689.16;4995211;28;20459;-74
2021/01/06 07:57:46;;;;;;;30.73;16.03;;;;;;;5.76;64.77;94696.75;4993241;28;20516;-75
2021/01/06 08:00:16;;;;;;;28.52;16.48;;;;;;;5.64;65.23;94709.91;4993050;28;20423;-74
2021/01/06 08:02:55;;;;;;;35.93;13.83;;;;;;;5.96;63.96;94693.44;4988935;28;20182;-74
2021/01/06 08:05:28;;;;;;;34.33;16.83;;;;;;;5.72;64.98;94730.28;5058355;28;20424;-74
2021/01/06 08:08:11;;;;;;;35.83;15.20;;;;;;;5.91;64.05;94675.06;5073692;28;20420;-73
2021/01/06 08:10:42;;;;;;;70.33;18.50;;;;;;;5.87;64.21;94697.97;5057251;28;20424;-75
2021/01/06 08:13:09;;;;;;;28.38;14.13;;;;;;;5.93;63.83;94703.88;5057821;28;20919;-74
2021/01/06 08:15:35;;;;;;;51.57;16.73;;;;;;;6.10;63.87;94691.31;5074641;28;20195;-73
2021/01/06 08:18:32;;;;;;;45.67;15.93;;;;;;;6.30;63.08;94720.84;5074739;28;20414;-74
2021/01/06 08:21:23;;;;;;;29.30;13.37;;;;;;;6.36;62.12;94716.91;4993421;28;20727;-75
2021/01/06 08:23:48;;;;;;;45.00;16.03;;;;;;;6.18;63.48;94739.31;4935080;29;20435;-74
2021/01/06 08:26:27;;;;;;;39.33;17.10;;;;;;;6.40;62.58;94712.53;4935285;29;20436;-74
2021/01/06 08:29:13;;;;;;;37.63;18.67;;;;;;;6.28;63.50;94721.16;4919008;29;20797;-74
2021/01/06 08:31:38;;;;;;;30.53;16.20;;;;;;;6.24;62.85;94733.50;4953799;28;20430;-74
2021/01/06 08:34:04;;;;;;;32.37;15.20;;;;;;;6.45;62.00;94699.03;4936021;28;20431;-74
2021/01/06 08:36:33;;;;;;;31.33;15.90;;;;;;;6.43;62.41;94721.69;4934995;29;20180;-75
2021/01/06 08:39:18;;;;;;;34.53;16.13;;;;;;;6.47;61.81;94727.91;4919072;29;20187;-75
2021/01/06 08:41:45;;;;;;;27.93;14.93;;;;;;;6.79;61.09;94713.16;4934611;29;20530;-74
2021/01/06 08:44:40;;;;;;;29.33;13.53;;;;;;;6.66;61.88;94735.44;4934903;29;20463;-76
2021/01/06 08:47:08;;;;;;;29.10;14.57;;;;;;;6.88;61.43;94719.19;4934903;29;20458;-76
2021/01/06 08:49:42;;;;;;;27.07;12.70;;;;;;;7.07;60.91;94703.56;4919415;29;20934;-76
2021/01/06 08:52:18;;;;;;;27.57;12.73;;;;;;;7.05;59.89;94742.16;4934516;29;20444;-78
2021/01/06 08:54:56;;;;;;;22.83;11.07;;;;;;;7.35;58.10;94709.06;4933899;29;20493;-77
2021/01/06 08:57:25;;;;;;;28.23;14.47;;;;;;;7.63;58.68;94682.66;4948708;28;20431;-76
2021/01/06 08:59:50;;;;;;;20.40;11.03;;;;;;;7.61;58.44;94729.25;4983960;28;20431;-73
2021/01/06 09:02:41;;;;;;;25.67;11.63;;;;;;;7.83;57.20;94702.28;5052161;28;20422;-74
2021/01/06 09:05:29;;;;;;;26.07;13.30;;;;;;;7.95;58.74;94686.31;5036711;28;20168;-73
2021/01/06 09:07:54;;;;;;;24.77;13.47;;;;;;;7.67;59.14;94731.38;5038440;28;20434;-73
2021/01/06 09:10:36;;;;;;;26.83;14.50;;;;;;;7.75;58.65;94705.81;5053556;28;20444;-74
2021/01/06 09:13:08;;;;;;;33.20;15.37;;;;;;;7.73;59.50;94739.13;5019385;28;20164;-74
2021/01/06 09:15:51;;;;;;;31.23;14.73;;;;;;;7.75;58.12;94723.66;5019381;28;20559;-74
2021/01/06 09:18:30;;;;;;;31.90;15.70;;;;;;;8.27;58.05;94661.81;5019235;28;20418;-74
2021/01/06 09:20:59;;;;;;;29.60;13.70;;;;;;;8.61;57.54;94661.31;5035702;28;20513;-75
2021/01/06 09:23:24;;;;;;;23.33;11.90;;;;;;;8.49;55.05;94698.63;5053436;28;20493;-73
2021/01/06 09:25:50;;;;;;;24.10;11.60;;;;;;;8.38;56.39;94684.22;5053144;28;20422;-74
2021/01/06 09:28:15;;;;;;;23.90;12.53;;;;;;;8.76;55.65;94677.72;5035450;28;20211;-74
2021/01/06 09:30:41;;;;;;;22.83;12.43;;;;;;;8.86;54.90;94687.84;5018956;28;20180;-74
2021/01/06 09:33:18;;;;;;;22.83;10.73;;;;;;;9.05;55.04;94666.72;5019183;28;20322;-74
2021/01/06 09:35:43;;;;;;;20.17;10.70;;;;;;;9.36;52.96;94676.66;5019249;28;20195;-75
2021/01/06 09:38:31;;;;;;;18.27;10.77;;;;;;;9.64;51.17;94665.94;5035349;28;20975;-76
2021/01/06 09:41:03;;;;;;;28.93;11.40;;;;;;;9.83;52.53;94661.81;5004427;28;20552;-75
2021/01/06 09:43:37;;;;;;;17.23;10.30;;;;;;;10.01;51.03;94674.44;5035608;28;20492;-74
2021/01/06 09:46:36;;;;;;;20.53;10.07;;;;;;;10.30;49.57;94680.44;5053052;28;20474;-74
2021/01/06 09:49:08;;;;;;;19.27;9.80;;;;;;;10.48;49.00;94662.91;4991303;28;20429;-74
2021/01/06 09:51:33;;;;;;;17.43;10.00;;;;;;;10.65;50.28;94624.38;4991856;28;20491;-75
2021/01/06 09:54:01;;;;;;;20.33;9.90;;;;;;;10.76;49.68;94635.25;4991614;28;20833;-75
2021/01/06 09:56:26;;;;;;;22.53;9.77;;;;;;;11.00;47.90;94639.53;4991748;28;20213;-74
2021/01/06 09:58:52;;;;;;;19.37;9.17;;;;;;;10.97;48.33;94629.56;4958920;28;20429;-74
2021/01/06 10:01:34;;;;;;;17.27;9.13;;;;;;;11.15;47.89;94609.28;4991256;28;20197;-75
2021/01/06 10:04:01;;;;;;;21.63;7.50;;;;;;;10.85;48.66;94617.13;4975014;28;20182;-74
2021/01/06 10:06:39;;;;;;;16.87;7.13;;;;;;;10.74;47.89;94611.59;5007690;28;20436;-74
2021/01/06 10:09:05;;;;;;;18.40;7.17;;;;;;;11.22;46.67;94598.72;4991128;28;20425;-73
2021/01/06 10:11:56;;;;;;;12.10;6.63;;;;;;;11.15;46.52;94590.56;4991257;28;20994;-74
2021/01/06 10:14:44;;;;;;;11.87;6.17;;;;;;;11.23;46.99;94607.53;4932935;29;20667;-74
2021/01/06 10:17:23;;;;;;;16.93;7.37;;;;;;;12.33;66.89;94616.50;4932935;29;20474;-73
2021/01/06 10:20:14;;;;;;;15.77;8.87;;;;;;;12.95;68.92;94598.13;4917382;29;20474;-74
2021/01/06 10:23:25;;;;;;;16.47;7.60;;;;;;;14.86;58.63;94605.31;4932839;29;20434;-71
2021/01/06 10:25:52;;;;;;;13.27;7.53;;;;;;;14.35;44.36;94618.88;4954458;28;20513;-72
2021/01/06 10:28:20;;;;;;;15.50;7.10;;;;;;;14.33;55.25;94611.19;4948175;29;20502;-71
2021/01/06 10:31:08;;;;;;;12.53;6.33;;;;;;;15.10;47.92;94597.72;4951944;28;20529;-72
2021/01/06 10:33:34;;;;;;;11.27;7.13;;;;;;;15.66;45.08;94591.69;4952150;29;20503;-71
2021/01/06 10:36:06;;;;;;;11.77;6.87;;;;;;;14.25;45.52;94606.91;4935961;29;20478;-71
2021/01/06 10:38:52;;;;;;;13.77;6.57;;;;;;;15.35;46.12;94574.31;4951799;29;20575;-71
2021/01/06 10:41:31;;;;;;;19.00;8.77;;;;;;;14.40;45.68;94578.22;4936202;29;21016;-78
2021/01/06 10:44:00;;;;;;;19.10;8.67;;;;;;;15.06;51.24;94592.31;4935838;29;20506;-73
2021/01/06 10:46:51;;;;;;;19.07;9.57;;;;;;;14.10;42.40;94586.50;4920443;29;20992;-75
2021/01/06 10:49:19;;;;;;;20.97;9.23;;;;;;;13.31;43.90;94571.72;4935849;29;20454;-73
2021/01/06 10:51:57;;;;;;;25.40;7.83;;;;;;;12.83;44.35;94574.25;5005779;28;20431;-73
2021/01/06 10:54:31;;;;;;;14.87;8.17;;;;;;;12.20;45.75;94545.59;5031719;28;20452;-73
2021/01/06 10:56:57;;;;;;;12.87;7.30;;;;;;;12.12;45.90;94526.78;5031699;28;20925;-73
2021/01/06 10:59:23;;;;;;;13.17;4.10;;;;;;;11.90;43.49;94522.28;4997547;28;20427;-75
2021/01/06 11:02:00;;;;;;;12.60;7.33;;;;;;;11.70;46.61;94520.78;5031775;28;20650;-74
2021/01/06 11:04:45;;;;;;;18.03;8.80;;;;;;;11.68;47.78;94515.81;5015178;28;20175;-73
2021/01/06 11:07:16;;;;;;;15.50;8.70;;;;;;;11.68;47.66;94510.47;4998194;28;20880;-72
2021/01/06 11:10:05;;;;;;;14.13;7.37;;;;;;;11.35;48.34;94513.78;5031951;28;20773;-72
2021/01/06 11:13:07;;;;;;;13.50;8.17;;;;;;;13.48;60.87;94493.31;4997953;28;20430;-72
2021/01/06 11:15:52;;;;;;;16.67;5.60;;;;;;;13.58;52.83;94507.94;4977627;28;20562;-72
2021/01/06 11:18:24;;;;;;;8.63;5.30;;;;;;;13.64;51.38;94493.81;4990070;28;20429;-72
2021/01/06 11:21:09;;;;;;;7.77;4.90;;;;;;;14.04;50.04;94494.81;4989827;28;20512;-72
2021/01/06 11:23:57;;;;;;;8.20;4.93;;;;;;;13.43;50.04;94497.09;4989848;28;20998;-72
2021/01/06 11:26:31;;;;;;;11.97;5.30;;;;;;;13.47;49.87;94495.22;4976274;28;20444;-73
2021/01/06 11:29:18;;;;;;;16.50;5.40;;;;;;;13.29;47.49;94486.25;5015105;28;20474;-72
2021/01/06 11:31:50;;;;;;;13.57;6.13;;;;;;;13.35;49.77;94484.00;5029455;28;20798;-73
2021/01/06 11:34:15;;;;;;;9.17;4.03;;;;;;;13.42;49.44;94494.81;5028966;28;20426;-73
2021/01/06 11:36:59;;;;;;;11.40;5.20;;;;;;;13.70;47.96;94489.63;5033634;28;20426;-73
2021/01/06 11:39:27;;;;;;;6.80;3.80;;;;;;;13.97;47.69;94484.81;5019265;28;20245;-73
2021/01/06 11:42:07;;;;;;;10.80;5.40;;;;;;;13.76;45.01;94453.25;5035795;28;20453;-73
2021/01/06 11:44:44;;;;;;;14.20;5.67;;;;;;;13.65;48.56;94457.03;5020570;28;20795;-73
2021/01/06 11:47:46;;;;;;;13.73;5.50;;;;;;;13.72;45.80;94462.41;5035873;28;20913;-73
2021/01/06 11:50:36;;;;;;;15.47;4.60;;;;;;;13.54;47.91;94491.06;5029191;28;20803;-73
2021/01/06 11:53:25;;;;;;;5.50;3.40;;;;;;;13.94;45.99;94498.19;5056555;28;20426;-73
2021/01/06 11:56:14;;;;;;;10.27;3.57;;;;;;;14.11;44.39;94480.63;5015549;28;20471;-72